Terminal Aerodrome Forecast
Issued by NWS Riverton, WY

Home | Current Version | Previous Version | Text Only | Print | Product List | Glossary On
Versions: 1 2 3 4 5 6 7 8 9 10 11 12 13 14
522
FTUS45 KRIW 132050 AAB
TAFRIW
TAF AMD
KRIW 132050Z 1321/1418 35006KT P6SM VCSH SCT025 OVC040
     FM132130 36008KT 3SM -SN OVC016
     FM140500 36007KT P6SM VCSH OVC024
     FM140800 33005KT P6SM SCT024 BKN050=

USA.gov is the U.S. government's official web portal to all federal, state and local government web resources and services.